Time;durP1;ratioP1;P1;durP2;ratioP2;P2;SDS_P1;SDS_P2;PMS_P1;PMS_P2;Temp;Humidity;BMP_temperature;BMP_pressure;BME280_temperature;BME280_humidity;BME280_pressure;Samples;Min_cycle;Max_cycle;Signal;HPM_P1;HPM_P2
2022/01/18 00:00:28;;;;;;;25.33;15.38;;;0.10;99.90;;;;;;5077437;28;20052;-62
2022/01/18 00:02:58;;;;;;;27.80;16.45;;;0.10;99.90;;;;;;5076938;28;20052;-63
2022/01/18 00:05:26;;;;;;;27.27;16.33;;;0.10;99.90;;;;;;5077545;28;20249;-62
2022/01/18 00:07:54;;;;;;;25.50;14.23;;;0.10;99.90;;;;;;5076924;28;20070;-62
2022/01/18 00:10:27;;;;;;;28.00;15.50;;;0.10;99.90;;;;;;5076535;28;20048;-62
2022/01/18 00:16:11;;;;;;;32.78;15.02;;;0.10;99.90;;;;;;5052820;28;20307;-63
2022/01/18 00:18:39;;;;;;;25.92;15.95;;;0.10;99.90;;;;;;5076627;28;20048;-62
2022/01/18 00:23:53;;;;;;;26.75;15.40;;;0.10;99.90;;;;;;5076991;28;20051;-62
2022/01/18 00:26:20;;;;;;;21.27;12.45;;;0.10;99.90;;;;;;5076192;28;20403;-62
2022/01/18 00:28:53;;;;;;;20.30;12.57;;;0.10;99.90;;;;;;5076991;28;20430;-62
2022/01/18 00:31:35;;;;;;;20.52;12.18;;;0.10;99.90;;;;;;5074681;28;20044;-62
2022/01/18 00:36:53;;;;;;;17.88;11.20;;;0.20;99.90;;;;;;5076186;28;20040;-63
2022/01/18 00:39:20;;;;;;;17.30;10.75;;;0.20;99.90;;;;;;5076189;28;20040;-62
2022/01/18 00:41:47;;;;;;;18.52;11.55;;;0.10;99.90;;;;;;5075931;28;20539;-62
2022/01/18 00:44:14;;;;;;;18.92;11.35;;;0.20;99.90;;;;;;5076614;28;20048;-62
2022/01/18 00:46:41;;;;;;;18.63;11.75;;;0.20;99.90;;;;;;5076373;28;20524;-62
2022/01/18 00:49:10;;;;;;;17.45;11.35;;;0.20;99.90;;;;;;5074957;28;20042;-62
2022/01/18 00:51:39;;;;;;;17.90;12.38;;;0.20;99.90;;;;;;5076722;28;20048;-63
2022/01/18 00:54:10;;;;;;;18.75;12.52;;;0.20;99.90;;;;;;5076189;28;20040;-62
2022/01/18 00:56:42;;;;;;;19.90;13.82;;;0.20;99.90;;;;;;5076063;28;20048;-62
2022/01/18 00:59:09;;;;;;;22.58;13.10;;;0.20;99.90;;;;;;5079861;28;20352;-62
2022/01/18 01:01:36;;;;;;;;;;;0.30;99.90;;;;;;5081285;28;20093;-61
2022/01/18 01:04:04;;;;;;;20.08;12.98;;;0.30;99.90;;;;;;5080839;28;19924;-62
2022/01/18 01:06:32;;;;;;;22.20;13.52;;;0.30;99.90;;;;;;5080209;28;20040;-62
2022/01/18 01:08:59;;;;;;;20.10;13.48;;;0.30;99.90;;;;;;5080506;28;20586;-61
2022/01/18 01:11:27;;;;;;;20.65;13.75;;;0.30;99.90;;;;;;5079917;28;20173;-62
2022/01/18 01:13:58;;;;;;;21.05;14.00;;;0.40;99.90;;;;;;5080541;28;20052;-62
2022/01/18 01:35:27;;;;;;;17.25;11.60;;;0.40;99.90;;;;;;5078995;28;20044;-62
2022/01/18 01:46:18;;;;;;;18.33;10.80;;;0.50;99.90;;;;;;5078967;28;20113;-62
2022/01/18 01:48:51;;;;;;;18.05;11.15;;;0.50;99.90;;;;;;5078965;28;20513;-62
2022/01/18 01:51:18;;;;;;;19.67;11.95;;;0.50;99.90;;;;;;5078971;28;20044;-62
2022/01/18 01:53:44;;;;;;;21.63;12.40;;;0.50;99.90;;;;;;5079176;28;20117;-62
2022/01/18 01:56:12;;;;;;;18.23;12.00;;;0.50;99.90;;;;;;5079133;28;20591;-62
2022/01/18 01:58:39;;;;;;;;;;;0.50;99.90;;;;;;5078371;28;20069;-62
2022/01/18 02:01:07;;;;;;;16.27;10.27;;;0.40;99.90;;;;;;5078585;28;19973;-62
2022/01/18 02:03:36;;;;;;;20.17;11.70;;;0.40;99.90;;;;;;5078499;28;20156;-63
2022/01/18 02:06:03;;;;;;;20.58;11.63;;;0.40;99.90;;;;;;5079577;28;20107;-62
2022/01/18 02:08:30;;;;;;;15.57;10.60;;;0.40;99.90;;;;;;5079110;28;20044;-62
2022/01/18 02:10:57;;;;;;;;;;;0.40;99.90;;;;;;5079060;28;20101;-62
2022/01/18 02:13:24;;;;;;;17.05;9.52;;;0.30;99.90;;;;;;5079295;28;19927;-62
2022/01/18 02:24:03;;;;;;;17.52;11.30;;;0.30;99.90;;;;;;5058172;28;20584;-62
2022/01/18 02:26:30;;;;;;;20.67;11.60;;;0.30;99.90;;;;;;5057930;28;20698;-62
2022/01/18 02:29:03;;;;;;;16.20;11.10;;;0.30;99.90;;;;;;5058647;28;20044;-62
2022/01/18 02:31:30;;;;;;;18.00;12.15;;;0.30;99.90;;;;;;5058592;28;20565;-62
2022/01/18 02:34:13;;;;;;;19.05;11.05;;;0.20;99.90;;;;;;5077032;28;20047;-62
2022/01/18 02:36:40;;;;;;;15.07;10.65;;;0.20;99.90;;;;;;5078472;28;20533;-62
2022/01/18 02:39:07;;;;;;;15.95;9.50;;;0.20;99.90;;;;;;5077552;28;20074;-62
2022/01/18 02:41:35;;;;;;;14.75;9.82;;;0.20;99.90;;;;;;5078629;28;20121;-62
2022/01/18 02:44:08;;;;;;;18.33;9.70;;;0.10;99.90;;;;;;5078385;28;20068;-62
2022/01/18 02:46:35;;;;;;;15.57;9.98;;;0.10;99.90;;;;;;5078379;28;20051;-62
2022/01/18 02:49:03;;;;;;;17.23;11.52;;;0.10;99.90;;;;;;5078015;28;20043;-62
2022/01/18 02:51:30;;;;;;;18.25;11.25;;;0.10;99.90;;;;;;5078552;28;20522;-62
2022/01/18 02:54:02;;;;;;;15.48;9.85;;;0.00;99.90;;;;;;5078357;28;20096;-62
2022/01/18 02:56:34;;;;;;;14.07;9.82;;;0.00;99.90;;;;;;5078084;28;20053;-62
2022/01/18 02:59:13;;;;;;;17.27;9.68;;;0.00;99.90;;;;;;5078170;28;20051;-62
2022/01/18 03:04:26;;;;;;;23.67;13.10;;;-0.10;99.90;;;;;;5077880;28;20100;-62
2022/01/18 03:06:53;;;;;;;;;;;-0.10;99.90;;;;;;5078294;28;20117;-62
2022/01/18 03:09:20;;;;;;;13.57;7.45;;;-0.20;99.90;;;;;;5077748;28;19992;-62
2022/01/18 03:11:47;;;;;;;18.38;10.98;;;-0.20;99.90;;;;;;5077883;28;20044;-62
2022/01/18 03:14:14;;;;;;;14.80;9.45;;;-0.20;99.90;;;;;;5077488;28;20059;-62
2022/01/18 03:16:41;;;;;;;12.43;9.32;;;-0.20;99.90;;;;;;5077599;28;20072;-62
2022/01/18 03:19:07;;;;;;;15.10;9.75;;;-0.20;99.90;;;;;;5076688;28;20513;-62
2022/01/18 03:21:34;;;;;;;;;;;-0.10;99.90;;;;;;5077723;28;20462;-62
2022/01/18 03:29:32;;;;;;;15.05;9.85;;;-0.10;99.90;;;;;;5077451;28;20553;-62
2022/01/18 03:31:59;;;;;;;;;;;-0.10;99.90;;;;;;5077699;28;20383;-62
2022/01/18 03:34:26;;;;;;;17.80;10.88;;;-0.10;99.90;;;;;;5075429;28;20258;-61
2022/01/18 03:36:53;;;;;;;17.60;11.77;;;-0.10;99.90;;;;;;5076166;28;20121;-62
2022/01/18 03:39:20;;;;;;;19.25;12.48;;;-0.20;99.90;;;;;;5076555;28;20480;-62
2022/01/18 03:41:55;;;;;;;;;;;-0.20;99.90;;;;;;5077848;28;20093;-62
2022/01/18 03:44:24;;;;;;;18.25;11.35;;;-0.20;99.90;;;;;;5077323;28;20378;-62
2022/01/18 03:46:53;;;;;;;17.38;11.00;;;-0.30;99.90;;;;;;5076597;28;20391;-62
2022/01/18 03:49:23;;;;;;;15.90;11.07;;;-0.30;99.90;;;;;;5075933;28;20042;-62
2022/01/18 03:51:50;;;;;;;17.67;10.25;;;-0.30;99.90;;;;;;5076727;28;20047;-62
2022/01/18 03:54:22;;;;;;;15.40;10.32;;;-0.30;99.90;;;;;;5076165;28;20055;-62
2022/01/18 03:56:49;;;;;;;15.63;10.15;;;-0.20;99.90;;;;;;5076805;28;20598;-62
2022/01/18 03:59:16;;;;;;;19.42;11.63;;;-0.20;99.90;;;;;;5076157;28;20084;-62
2022/01/18 04:01:43;;;;;;;17.38;11.20;;;-0.20;99.90;;;;;;5076150;28;20448;-62
2022/01/18 04:04:12;;;;;;;24.30;12.93;;;-0.20;99.90;;;;;;5076763;28;20060;-62
2022/01/18 04:06:39;;;;;;;18.77;11.48;;;-0.20;99.90;;;;;;5076487;28;20109;-62
2022/01/18 04:09:06;;;;;;;;;;;-0.10;99.90;;;;;;5077439;28;20057;-62
2022/01/18 04:11:32;;;;;;;21.17;11.45;;;-0.10;99.90;;;;;;5077534;28;19955;-62
2022/01/18 04:13:59;;;;;;;21.08;12.70;;;-0.10;99.90;;;;;;5075869;28;20422;-62
2022/01/18 04:16:26;;;;;;;21.90;13.20;;;-0.10;99.90;;;;;;5075937;28;20550;-62
2022/01/18 04:19:09;;;;;;;22.42;13.55;;;-0.10;99.90;;;;;;5059505;28;20049;-62
2022/01/18 04:27:20;;;;;;;17.73;11.48;;;-0.10;99.90;;;;;;5042040;28;20056;-62
2022/01/18 04:29:47;;;;;;;19.90;12.05;;;-0.10;99.90;;;;;;5075837;28;20105;-62
2022/01/18 04:32:14;;;;;;;;;;;-0.10;99.90;;;;;;5077652;28;20055;-62
2022/01/18 04:34:41;;;;;;;17.88;10.90;;;-0.10;99.90;;;;;;5078924;28;19923;-62
2022/01/18 04:37:11;;;;;;;18.83;11.27;;;-0.10;99.90;;;;;;5078003;28;20058;-61
2022/01/18 04:39:40;;;;;;;;;;;-0.20;99.90;;;;;;5080349;28;20039;-61
2022/01/18 04:42:30;;;;;;;17.50;11.10;;;-0.20;99.90;;;;;;5080412;28;19973;-61
2022/01/18 04:50:25;;;;;;;25.48;15.45;;;-0.20;99.90;;;;;;5076776;28;20059;-62
2022/01/18 04:52:52;;;;;;;;;;;-0.20;99.90;;;;;;5080574;28;20563;-62
2022/01/18 04:55:19;;;;;;;20.73;13.70;;;-0.20;99.90;;;;;;5080898;28;20136;-62
2022/01/18 04:57:52;;;;;;;20.33;12.10;;;-0.20;99.90;;;;;;5079650;28;20089;-62
2022/01/18 05:00:21;;;;;;;23.30;14.07;;;-0.30;99.90;;;;;;5079727;28;20035;-62
2022/01/18 05:02:48;;;;;;;23.40;13.07;;;-0.20;99.90;;;;;;5080031;28;20075;-62
2022/01/18 05:05:28;;;;;;;22.52;13.85;;;-0.30;99.90;;;;;;5080390;28;20076;-62
2022/01/18 05:07:59;;;;;;;25.38;15.18;;;-0.30;99.90;;;;;;5079579;28;20044;-62
2022/01/18 05:10:28;;;;;;;24.90;13.60;;;-0.30;99.90;;;;;;5079834;28;20044;-62
2022/01/18 05:12:57;;;;;;;23.27;15.07;;;-0.30;99.90;;;;;;5080445;28;20105;-62
2022/01/18 05:23:05;;;;;;;22.90;13.93;;;-0.30;99.90;;;;;;5080165;28;20379;-62
2022/01/18 05:25:33;;;;;;;21.80;12.80;;;-0.30;99.90;;;;;;5079194;28;20043;-62
2022/01/18 05:28:02;;;;;;;22.45;14.20;;;-0.40;99.90;;;;;;5078366;28;20575;-62
2022/01/18 05:30:30;;;;;;;20.48;13.43;;;-0.40;99.90;;;;;;5076417;28;20512;-62
2022/01/18 05:32:58;;;;;;;20.23;12.23;;;-0.50;99.90;;;;;;5077993;28;20781;-62
2022/01/18 05:35:25;;;;;;;17.75;11.80;;;-0.50;99.90;;;;;;5077705;28;20642;-62
2022/01/18 05:37:52;;;;;;;19.88;12.75;;;-0.50;99.90;;;;;;5077051;28;20044;-62
2022/01/18 05:40:19;;;;;;;;;;;-0.60;99.90;;;;;;5078757;28;20102;-62
2022/01/18 05:42:47;;;;;;;;;;;-0.70;99.90;;;;;;5078667;28;20459;-62
2022/01/18 05:45:13;;;;;;;20.95;12.30;;;-0.70;99.90;;;;;;5078338;28;19959;-63
2022/01/18 05:47:41;;;;;;;24.77;14.15;;;-0.70;99.90;;;;;;5078186;28;20127;-62
2022/01/18 05:50:09;;;;;;;23.27;13.25;;;-0.80;99.90;;;;;;5077448;28;20075;-62
2022/01/18 05:52:38;;;;;;;26.13;14.93;;;-0.80;99.90;;;;;;5077808;28;20056;-62
2022/01/18 05:55:06;;;;;;;22.83;13.45;;;-0.90;99.90;;;;;;5076482;28;20048;-62
2022/01/18 05:57:32;;;;;;;24.65;15.13;;;-0.90;99.90;;;;;;5078347;28;20453;-62
2022/01/18 06:00:05;;;;;;;;;;;-0.90;99.90;;;;;;5078501;28;20610;-62
2022/01/18 06:07:56;;;;;;;24.33;13.80;;;-1.00;99.90;;;;;;5077548;28;20040;-62
2022/01/18 06:10:23;;;;;;;22.73;13.00;;;-1.00;99.90;;;;;;5077186;28;20093;-62
2022/01/18 06:12:50;;;;;;;;;;;-1.00;99.90;;;;;;5077858;28;20105;-62
2022/01/18 06:15:17;;;;;;;25.65;16.23;;;-1.00;99.90;;;;;;5077548;28;19932;-62
2022/01/18 06:17:45;;;;;;;26.38;14.65;;;-1.00;99.90;;;;;;5076710;28;20076;-62
2022/01/18 06:20:13;;;;;;;24.77;14.43;;;-1.00;99.90;;;;;;5077157;28;20058;-63
2022/01/18 06:22:39;;;;;;;28.02;16.52;;;-1.00;99.90;;;;;;5076636;28;20105;-63
2022/01/18 06:25:07;;;;;;;24.27;13.73;;;-1.00;99.90;;;;;;5040443;28;1069064;-62
2022/01/18 06:27:34;;;;;;;28.33;15.13;;;-1.00;99.90;;;;;;5079000;28;20052;-62
2022/01/18 06:30:01;;;;;;;31.83;15.40;;;-1.00;99.90;;;;;;5077382;28;20117;-63
2022/01/18 06:32:27;;;;;;;34.10;18.65;;;-1.00;99.90;;;;;;5076082;28;20356;-63
2022/01/18 06:34:54;;;;;;;25.83;15.50;;;-1.10;99.90;;;;;;5078002;28;20044;-56
2022/01/18 06:37:22;;;;;;;29.55;16.60;;;-1.10;99.90;;;;;;5070356;28;20429;-56
2022/01/18 06:39:48;;;;;;;;;;;-1.10;99.90;;;;;;5068345;28;20525;-56
2022/01/18 06:42:15;;;;;;;27.52;15.05;;;-1.10;99.90;;;;;;5076820;28;19985;-56
2022/01/18 06:44:42;;;;;;;;;;;-1.10;99.90;;;;;;5076919;28;20541;-56
2022/01/18 06:47:08;;;;;;;29.10;15.45;;;-1.10;99.90;;;;;;5076217;28;19969;-56
2022/01/18 06:49:35;;;;;;;;;;;-1.10;99.90;;;;;;5075924;28;20040;-56
2022/01/18 06:52:03;;;;;;;28.83;14.77;;;-1.10;99.90;;;;;;5076784;28;20427;-56
2022/01/18 06:54:29;;;;;;;31.73;18.00;;;-1.10;99.90;;;;;;5075833;28;20705;-56
2022/01/18 06:56:56;;;;;;;;;;;-1.10;99.90;;;;;;5072540;28;20421;-56
2022/01/18 06:59:23;;;;;;;29.00;16.20;;;-1.10;99.90;;;;;;5075905;28;20610;-56
2022/01/18 07:01:49;;;;;;;;;;;-1.10;99.90;;;;;;5077184;28;20047;-56
2022/01/18 07:04:16;;;;;;;27.65;17.42;;;-1.20;99.90;;;;;;5077040;28;19963;-56
2022/01/18 07:06:45;;;;;;;29.25;17.10;;;-1.20;99.90;;;;;;5076927;28;20174;-56
2022/01/18 07:09:14;;;;;;;27.08;16.00;;;-1.20;99.90;;;;;;5077171;28;20047;-57
2022/01/18 07:11:43;;;;;;;28.63;16.98;;;-1.20;99.90;;;;;;5076789;28;20044;-56
2022/01/18 07:14:09;;;;;;;30.77;17.40;;;-1.20;99.90;;;;;;5076776;28;20068;-56
2022/01/18 07:16:36;;;;;;;25.77;15.52;;;-1.20;99.90;;;;;;5076288;28;20047;-56
2022/01/18 07:19:03;;;;;;;28.15;15.98;;;-1.20;99.90;;;;;;5076691;28;20058;-56
2022/01/18 07:21:30;;;;;;;;;;;-1.20;99.90;;;;;;5077731;28;20097;-56
2022/01/18 07:24:05;;;;;;;25.43;15.40;;;-1.30;99.90;;;;;;5075070;28;19924;-56
2022/01/18 07:26:32;;;;;;;25.48;14.90;;;-1.30;99.90;;;;;;5077377;28;20235;-56
2022/01/18 07:28:59;;;;;;;31.83;16.88;;;-1.30;99.90;;;;;;5076521;28;20051;-56
2022/01/18 07:31:26;;;;;;;;;;;-1.20;99.90;;;;;;5077321;28;20864;-56
2022/01/18 07:33:53;;;;;;;29.23;16.20;;;-1.20;99.90;;;;;;5075746;28;19978;-56
2022/01/18 07:36:19;;;;;;;29.35;16.77;;;-1.10;99.90;;;;;;5075639;28;20506;-56
2022/01/18 07:38:46;;;;;;;;;;;-1.00;99.90;;;;;;5075058;28;20427;-57
2022/01/18 07:41:13;;;;;;;30.88;17.58;;;-0.80;99.90;;;;;;5075963;28;19930;-56
2022/01/18 07:43:41;;;;;;;33.30;17.38;;;-0.60;99.90;;;;;;5076473;28;20036;-57
2022/01/18 07:46:08;;;;;;;29.02;17.95;;;-0.30;99.90;;;;;;5076217;28;20054;-56
2022/01/18 07:48:35;;;;;;;36.08;19.73;;;-0.10;99.90;;;;;;5075804;28;20039;-56
2022/01/18 07:51:02;;;;;;;32.78;18.55;;;0.10;99.90;;;;;;5075772;28;20129;-56
2022/01/18 07:53:28;;;;;;;32.92;16.92;;;0.40;99.90;;;;;;5076311;28;20897;-57
2022/01/18 07:55:55;;;;;;;;;;;0.70;99.90;;;;;;5076423;28;20446;-56
2022/01/18 07:58:22;;;;;;;35.42;17.40;;;0.90;99.90;;;;;;5076315;28;19966;-56
2022/01/18 08:00:48;;;;;;;;;;;1.10;99.90;;;;;;5075868;28;20055;-56
2022/01/18 08:03:15;;;;;;;33.15;17.88;;;1.40;99.90;;;;;;5076207;28;20431;-56
2022/01/18 08:05:42;;;;;;;30.50;17.98;;;1.60;99.90;;;;;;5074525;28;20458;-56
2022/01/18 08:08:10;;;;;;;29.70;17.00;;;1.80;99.90;;;;;;5075196;28;20927;-57
2022/01/18 08:10:37;;;;;;;28.08;17.65;;;2.00;99.90;;;;;;5075817;28;20036;-57
2022/01/18 08:13:04;;;;;;;27.95;17.08;;;2.20;99.90;;;;;;5075844;28;20032;-56
2022/01/18 08:15:42;;;;;;;32.17;18.40;;;2.40;99.90;;;;;;5074545;28;20048;-55
2022/01/18 08:18:14;;;;;;;30.70;17.52;;;2.50;99.90;;;;;;5076030;28;20048;-55
2022/01/18 08:20:41;;;;;;;28.27;16.35;;;2.60;99.90;;;;;;5075458;28;20093;-55
2022/01/18 08:23:09;;;;;;;30.75;17.40;;;2.70;99.90;;;;;;5076169;28;20048;-55
2022/01/18 08:25:37;;;;;;;30.52;19.10;;;2.70;99.90;;;;;;5075621;28;20051;-55
2022/01/18 08:28:04;;;;;;;34.58;21.27;;;2.70;99.90;;;;;;5076101;28;20356;-55
2022/01/18 08:30:31;;;;;;;29.77;17.77;;;2.80;99.90;;;;;;5076760;28;20036;-55
2022/01/18 08:32:58;;;;;;;30.98;18.30;;;2.90;99.90;;;;;;5075661;28;20056;-55
2022/01/18 08:35:26;;;;;;;27.02;17.02;;;2.90;99.90;;;;;;5076653;28;20044;-55
2022/01/18 08:37:53;;;;;;;33.20;19.58;;;3.00;99.90;;;;;;5073637;28;20056;-58
2022/01/18 08:40:20;;;;;;;31.30;19.73;;;2.90;99.90;;;;;;5074958;28;20421;-53
2022/01/18 08:42:47;;;;;;;30.73;19.58;;;2.90;99.90;;;;;;5075901;28;20051;-55
2022/01/18 08:45:13;;;;;;;;;;;2.90;99.90;;;;;;5076153;28;20056;-53
2022/01/18 08:47:47;;;;;;;33.42;20.38;;;2.90;99.90;;;;;;5075978;28;19920;-53
2022/01/18 08:50:17;;;;;;;35.50;22.48;;;2.90;99.90;;;;;;5075162;28;20085;-52
2022/01/18 08:52:44;;;;;;;33.63;21.83;;;3.00;99.90;;;;;;5076185;28;20473;-58
2022/01/18 08:55:11;;;;;;;37.00;22.65;;;3.00;99.90;;;;;;5075917;28;20044;-59
2022/01/18 08:57:38;;;;;;;34.33;21.92;;;3.00;99.90;;;;;;5075365;28;20043;-59
2022/01/18 09:00:08;;;;;;;34.15;21.10;;;3.00;99.90;;;;;;5075127;28;20521;-54
2022/01/18 09:02:35;;;;;;;32.80;21.30;;;3.00;99.90;;;;;;5073615;28;20090;-58
2022/01/18 09:05:02;;;;;;;;;;;3.00;99.90;;;;;;5075282;28;20490;-55
2022/01/18 09:07:29;;;;;;;35.53;22.80;;;3.10;99.90;;;;;;5070808;28;20151;-55
2022/01/18 09:10:03;;;;;;;30.88;20.00;;;3.20;99.90;;;;;;5075248;28;20378;-55
2022/01/18 09:12:30;;;;;;;28.88;19.38;;;3.30;99.90;;;;;;5074995;28;20113;-55
2022/01/18 09:14:59;;;;;;;36.65;22.58;;;3.40;99.90;;;;;;5076209;28;20391;-55
2022/01/18 09:17:28;;;;;;;37.58;23.40;;;3.60;99.90;;;;;;5076501;28;20043;-56
2022/01/18 09:19:55;;;;;;;;;;;3.70;99.90;;;;;;5079724;28;20044;-55
2022/01/18 09:22:22;;;;;;;38.85;23.52;;;3.80;99.90;;;;;;5078994;28;20163;-55
2022/01/18 09:24:48;;;;;;;;;;;4.00;99.90;;;;;;5079108;28;20098;-57
2022/01/18 09:27:17;;;;;;;38.40;20.13;;;4.10;99.90;;;;;;5078489;28;19927;-57
2022/01/18 09:29:43;;;;;;;31.33;19.17;;;4.30;99.90;;;;;;5078012;28;20790;-59
2022/01/18 09:32:11;;;;;;;;;;;4.50;99.90;;;;;;5079726;28;20044;-59
2022/01/18 09:34:38;;;;;;;26.70;17.58;;;4.80;99.90;;;;;;5078637;28;19924;-59
2022/01/18 09:37:05;;;;;;;;;;;5.00;99.90;;;;;;5078902;28;20048;-59
2022/01/18 09:39:31;;;;;;;25.08;15.18;;;5.10;99.90;;;;;;5077669;28;19977;-59
2022/01/18 09:42:04;;;;;;;24.17;15.23;;;5.20;99.90;;;;;;5077784;28;20329;-59
2022/01/18 09:44:31;;;;;;;27.10;17.95;;;5.30;99.90;;;;;;5079031;28;20522;-59
2022/01/18 09:46:58;;;;;;;25.95;16.70;;;5.40;99.90;;;;;;5077000;28;20044;-59
2022/01/18 09:49:24;;;;;;;25.25;16.27;;;5.40;99.90;;;;;;5078132;28;20364;-59
2022/01/18 09:51:51;;;;;;;;;;;5.20;99.90;;;;;;5078871;28;20055;-59
2022/01/18 09:54:18;;;;;;;26.13;16.50;;;5.10;99.90;;;;;;5078126;28;19923;-59
2022/01/18 09:56:44;;;;;;;;;;;5.00;99.90;;;;;;5079137;28;20113;-58
2022/01/18 09:59:12;;;;;;;23.02;15.50;;;4.90;99.90;;;;;;5075805;28;20000;-59
2022/01/18 10:01:38;;;;;;;22.40;15.60;;;4.90;99.90;;;;;;5076276;28;20047;-59
2022/01/18 10:04:37;;;;;;;27.30;16.55;;;4.80;99.90;;;;;;5077872;28;20131;-57
2022/01/18 10:07:04;;;;;;;24.08;16.42;;;4.70;99.90;;;;;;5077078;28;20521;-59
2022/01/18 10:09:31;;;;;;;26.40;16.23;;;4.60;99.90;;;;;;5078410;28;20044;-59
2022/01/18 10:12:04;;;;;;;;;;;4.50;99.90;;;;;;5078853;28;20040;-59
2022/01/18 10:14:31;;;;;;;25.75;15.13;;;4.40;99.90;;;;;;5079348;28;20373;-59
2022/01/18 10:16:58;;;;;;;25.63;16.38;;;4.40;99.90;;;;;;5077133;28;20097;-59
2022/01/18 10:19:50;;;;;;;;;;;4.40;99.90;;;;;;5078565;28;20074;-58
2022/01/18 10:22:22;;;;;;;23.33;15.10;;;4.50;99.90;;;;;;5070534;28;19969;-57
2022/01/18 10:24:49;;;;;;;25.15;16.13;;;4.60;99.90;;;;;;5076950;28;20456;-57
2022/01/18 10:27:17;;;;;;;23.50;14.90;;;4.60;99.90;;;;;;5077600;28;20051;-57
2022/01/18 10:29:47;;;;;;;23.77;14.50;;;4.60;99.90;;;;;;5076458;28;20101;-57
2022/01/18 10:32:20;;;;;;;24.88;14.02;;;4.70;99.90;;;;;;5074967;28;20036;-58
2022/01/18 10:37:25;;;;;;;21.73;14.68;;;4.80;99.90;;;;;;5077624;28;20048;-57
2022/01/18 10:39:58;;;;;;;34.33;15.77;;;4.60;99.90;;;;;;5074880;28;20466;-56
2022/01/18 10:42:36;;;;;;;25.17;14.98;;;4.60;99.90;;;;;;5075368;28;20437;-56
2022/01/18 10:45:31;;;;;;;25.42;15.43;;;4.50;99.90;;;;;;5077787;28;20486;-60
2022/01/18 10:48:02;;;;;;;24.55;14.95;;;4.40;99.90;;;;;;5075218;28;20044;-60
2022/01/18 10:50:34;;;;;;;21.38;14.57;;;4.30;99.90;;;;;;5074617;28;20109;-60
2022/01/18 10:53:13;;;;;;;23.20;15.38;;;4.40;99.90;;;;;;5075585;28;20545;-59
2022/01/18 10:55:40;;;;;;;25.25;15.05;;;4.50;99.90;;;;;;5077261;28;20258;-60
2022/01/18 10:58:15;;;;;;;26.27;15.55;;;4.80;99.90;;;;;;5076911;28;20489;-60
2022/01/18 11:00:42;;;;;;;28.02;16.00;;;5.20;99.90;;;;;;5077703;28;20067;-59
2022/01/18 11:03:10;;;;;;;21.10;13.30;;;5.50;99.90;;;;;;5077183;28;20051;-60
2022/01/18 11:05:39;;;;;;;31.73;14.73;;;5.80;99.90;;;;;;5077034;28;20083;-60
2022/01/18 11:08:07;;;;;;;25.83;14.98;;;5.90;99.90;;;;;;5075683;28;20048;-60
2022/01/18 11:10:39;;;;;;;20.65;13.85;;;5.90;99.90;;;;;;5076112;28;20101;-59
2022/01/18 11:13:33;;;;;;;21.05;14.05;;;5.90;99.90;;;;;;5078330;28;20044;-59
2022/01/18 11:16:04;;;;;;;25.80;13.95;;;5.80;99.90;;;;;;5077940;28;20400;-60
2022/01/18 11:18:36;;;;;;;21.33;13.43;;;5.60;99.90;;;;;;5076870;28;20046;-60
2022/01/18 11:21:06;;;;;;;20.48;13.35;;;5.50;99.90;;;;;;5076694;28;20529;-61
2022/01/18 11:23:35;;;;;;;19.05;13.15;;;5.40;99.90;;;;;;5077368;28;20379;-60
2022/01/18 11:26:02;;;;;;;21.20;12.40;;;5.30;99.90;;;;;;5076631;28;20452;-61
2022/01/18 11:28:31;;;;;;;28.23;14.32;;;5.20;99.90;;;;;;5076064;28;20047;-61
2022/01/18 11:30:58;;;;;;;22.65;13.13;;;5.20;99.90;;;;;;5075545;28;20131;-61
2022/01/18 11:33:27;;;;;;;21.33;13.80;;;5.20;99.90;;;;;;5076545;28;20179;-61
2022/01/18 11:36:01;;;;;;;22.80;13.80;;;5.10;99.90;;;;;;5074876;28;20048;-59
2022/01/18 11:38:54;;;;;;;22.30;14.45;;;5.00;99.90;;;;;;5077825;28;20097;-59
2022/01/18 11:41:29;;;;;;;19.75;12.98;;;4.90;99.90;;;;;;5075600;28;20466;-59
2022/01/18 11:43:59;;;;;;;20.60;13.05;;;4.80;99.90;;;;;;5075364;28;20036;-59
2022/01/18 11:46:28;;;;;;;20.65;13.60;;;4.70;99.90;;;;;;5075951;28;20114;-59
2022/01/18 11:49:09;;;;;;;18.45;12.32;;;4.70;99.90;;;;;;5074762;28;20038;-59
2022/01/18 11:51:49;;;;;;;18.38;12.27;;;4.60;99.90;;;;;;5076154;28;20051;-59
2022/01/18 11:54:41;;;;;;;23.50;14.25;;;4.70;99.90;;;;;;5076381;28;20048;-59
2022/01/18 11:57:23;;;;;;;21.25;13.23;;;4.60;99.90;;;;;;5075846;28;20471;-59
2022/01/18 11:59:53;;;;;;;21.92;13.55;;;4.50;99.90;;;;;;5074545;28;20063;-59
2022/01/18 12:02:30;;;;;;;19.02;12.32;;;4.50;99.90;;;;;;5075401;28;20048;-59
2022/01/18 12:05:00;;;;;;;19.15;12.73;;;4.50;99.90;;;;;;5075921;28;20044;-59
2022/01/18 12:07:33;;;;;;;20.60;14.02;;;4.40;99.90;;;;;;5076260;28;20044;-59
2022/01/18 12:10:19;;;;;;;21.10;12.52;;;4.40;99.90;;;;;;5075159;28;20044;-59
2022/01/18 12:12:48;;;;;;;22.38;12.73;;;4.40;99.90;;;;;;5075619;28;20172;-59
2022/01/18 12:15:18;;;;;;;20.73;11.95;;;4.30;99.90;;;;;;5075615;28;20317;-59
2022/01/18 12:18:04;;;;;;;21.17;13.15;;;4.30;99.90;;;;;;5075867;28;20047;-59
2022/01/18 12:20:43;;;;;;;21.98;12.35;;;4.20;99.90;;;;;;5075547;28;20097;-59
2022/01/18 12:23:17;;;;;;;19.30;12.00;;;4.20;99.90;;;;;;5075289;28;20565;-59
2022/01/18 12:26:16;;;;;;;16.85;11.73;;;4.20;99.90;;;;;;5075987;28;20036;-59
2022/01/18 12:34:29;;;;;;;17.60;11.25;;;4.10;99.90;;;;;;5075640;28;20127;-59
2022/01/18 12:37:21;;;;;;;19.45;11.85;;;4.10;99.90;;;;;;5076069;28;20040;-59
2022/01/18 12:39:54;;;;;;;17.60;11.10;;;4.10;99.90;;;;;;5075600;28;20569;-59
2022/01/18 12:45:13;;;;;;;14.50;10.23;;;4.00;99.90;;;;;;5074783;28;20628;-57
2022/01/18 12:48:07;;;;;;;23.25;11.02;;;4.00;99.90;;;;;;5074596;28;20044;-57
2022/01/18 12:50:38;;;;;;;17.63;10.27;;;4.10;99.90;;;;;;5052009;28;20109;-57
2022/01/18 12:53:09;;;;;;;16.45;9.93;;;4.10;99.90;;;;;;5055420;28;20126;-57
2022/01/18 12:55:45;;;;;;;12.88;8.82;;;4.10;99.90;;;;;;5058998;28;20052;-59
2022/01/18 12:58:12;;;;;;;14.48;9.15;;;4.00;99.90;;;;;;5074157;28;20048;-57
2022/01/18 13:00:49;;;;;;;13.05;9.38;;;4.00;99.90;;;;;;5078717;28;20221;-58
2022/01/18 13:03:23;;;;;;;12.38;8.68;;;4.00;99.90;;;;;;5078767;28;20051;-57
2022/01/18 13:05:55;;;;;;;14.85;9.45;;;4.00;99.90;;;;;;5079028;28;20048;-59
2022/01/18 13:08:40;;;;;;;13.45;8.45;;;4.00;99.90;;;;;;5078923;28;20561;-65
2022/01/18 13:11:06;;;;;;;11.68;8.45;;;4.00;99.90;;;;;;5079879;28;20060;-63
2022/01/18 13:13:34;;;;;;;;;;;4.00;99.90;;;;;;5079279;28;20047;-61
2022/01/18 13:22:55;;;;;;;11.67;8.40;;;3.90;99.90;;;;;;5078247;28;20371;-62
2022/01/18 13:29:48;;;;;;;14.15;9.32;;;3.90;99.90;;;;;;5077350;28;20047;-63
2022/01/18 13:32:19;;;;;;;13.52;9.60;;;3.90;99.90;;;;;;5079435;28;20040;-62
2022/01/18 13:34:58;;;;;;;16.25;9.73;;;3.90;99.90;;;;;;5077724;28;20048;-64
2022/01/18 13:37:27;;;;;;;14.15;9.23;;;4.00;99.90;;;;;;5078665;28;20082;-64
2022/01/18 13:39:57;;;;;;;15.43;9.52;;;4.00;99.90;;;;;;5076832;28;20070;-63
2022/01/18 13:42:33;;;;;;;14.13;9.40;;;4.00;99.90;;;;;;5073332;28;20045;-59
2022/01/18 13:45:12;;;;;;;15.38;10.05;;;4.00;99.90;;;;;;5077334;28;20452;-59
2022/01/18 13:47:38;;;;;;;16.20;9.00;;;3.90;99.90;;;;;;5081808;28;20040;-59
2022/01/18 13:50:06;;;;;;;17.58;10.10;;;3.90;99.90;;;;;;5078481;28;20045;-59
2022/01/18 13:52:32;;;;;;;15.32;10.88;;;3.90;99.90;;;;;;5084389;28;20035;-59
2022/01/18 13:54:59;;;;;;;16.50;11.02;;;3.90;99.90;;;;;;5081982;28;20822;-59
2022/01/18 13:57:26;;;;;;;;;;;3.90;99.90;;;;;;5072243;28;20044;-59
2022/01/18 13:59:52;;;;;;;17.05;11.18;;;3.80;99.90;;;;;;5077182;28;19993;-60
2022/01/18 14:02:21;;;;;;;;;;;3.80;99.90;;;;;;5084469;28;20446;-59
2022/01/18 14:05:09;;;;;;;14.10;10.35;;;3.80;99.90;;;;;;5084665;28;19948;-63
2022/01/18 14:07:36;;;;;;;16.75;10.93;;;3.70;99.90;;;;;;5081533;28;20108;-59
2022/01/18 14:10:05;;;;;;;15.00;10.55;;;3.70;99.90;;;;;;5082151;28;20044;-60
2022/01/18 14:12:33;;;;;;;19.35;11.18;;;3.60;99.90;;;;;;5080478;28;20028;-60
2022/01/18 14:15:00;;;;;;;17.05;10.15;;;3.60;99.90;;;;;;5075925;28;20520;-61
2022/01/18 14:17:28;;;;;;;16.85;10.07;;;3.50;99.90;;;;;;5077515;28;20097;-60
2022/01/18 14:20:08;;;;;;;15.27;9.75;;;3.50;99.90;;;;;;5082147;28;20484;-60
2022/01/18 14:22:38;;;;;;;16.77;10.65;;;3.50;99.90;;;;;;5081133;28;20028;-61
2022/01/18 14:25:07;;;;;;;18.20;9.38;;;3.40;99.90;;;;;;5089079;28;20387;-60
2022/01/18 14:27:42;;;;;;;16.65;9.85;;;3.40;99.90;;;;;;5087120;28;20044;-60
2022/01/18 14:30:21;;;;;;;19.55;10.65;;;3.30;99.90;;;;;;5070788;28;20490;-60
2022/01/18 14:32:50;;;;;;;18.25;10.95;;;3.30;99.90;;;;;;5072412;28;20455;-60
2022/01/18 14:35:20;;;;;;;14.25;10.32;;;3.30;99.90;;;;;;5077591;28;20064;-59
2022/01/18 14:37:53;;;;;;;17.02;11.10;;;3.20;99.90;;;;;;5082398;28;20028;-60